createdAt,value
2022-10-19T03:53:41.385Z,10.03
2022-10-19T03:56:09.532Z,10.13
2022-10-19T03:58:37.526Z,9.77
2022-10-19T04:01:08.892Z,8.88
2022-10-19T04:06:27.937Z,8.53
2022-10-19T04:08:54.542Z,9.27
2022-10-19T04:11:23.386Z,9.48
2022-10-19T04:13:50.923Z,9.80
2022-10-19T04:16:18.423Z,9.60
2022-10-19T04:18:45.095Z,10.03
2022-10-19T04:21:29.154Z,10.30
2022-10-19T04:24:01.824Z,10.60
2022-10-19T04:26:28.821Z,11.57
2022-10-19T04:28:58.596Z,11.10
2022-10-19T04:31:25.687Z,11.73
2022-10-19T04:33:52.099Z,11.13
2022-10-19T04:36:19.041Z,12.43
2022-10-19T04:38:45.506Z,11.20
2022-10-19T04:41:15.082Z,12.27
2022-10-19T04:43:41.726Z,12.13
2022-10-19T04:46:10.211Z,12.13
2022-10-19T04:48:38.979Z,12.00
2022-10-19T04:51:06.012Z,12.55
2022-10-19T04:53:33.181Z,11.88
2022-10-19T04:56:02.195Z,12.87
2022-10-19T04:58:28.606Z,12.27
2022-10-19T05:00:55.041Z,12.57
2022-10-19T05:03:21.473Z,12.55
2022-10-19T05:05:47.925Z,11.65
2022-10-19T05:08:14.345Z,11.17
2022-10-19T05:10:44.217Z,11.30
2022-10-19T05:13:13.429Z,11.38
2022-10-19T05:15:39.837Z,12.90
2022-10-19T05:18:06.261Z,11.52
2022-10-19T05:20:32.658Z,11.80
2022-10-19T05:23:02.000Z,12.60
2022-10-19T05:25:29.718Z,11.90
2022-10-19T05:27:56.154Z,11.77
2022-10-19T05:30:22.649Z,12.77
2022-10-19T05:32:50.451Z,11.93
2022-10-19T05:35:18.767Z,12.05
2022-10-19T05:37:48.019Z,12.32
2022-10-19T05:40:14.511Z,12.20
2022-10-19T05:42:40.935Z,11.15
2022-10-19T05:45:14.836Z,11.47
2022-10-19T05:47:43.566Z,11.57
2022-10-19T05:50:09.973Z,11.30
2022-10-19T05:52:36.406Z,11.60
2022-10-19T05:55:03.038Z,10.75
2022-10-19T05:57:32.173Z,11.07
2022-10-19T05:59:58.953Z,11.55
2022-10-19T06:02:25.370Z,11.50
2022-10-19T06:04:51.871Z,10.38
2022-10-19T06:07:18.314Z,10.20
2022-10-19T06:09:45.880Z,10.43
2022-10-19T06:12:12.331Z,10.02
2022-10-19T06:14:38.817Z,10.57
2022-10-19T06:17:11.273Z,10.63
2022-10-19T06:19:37.910Z,10.32
2022-10-19T06:22:04.357Z,9.87
2022-10-19T06:24:30.922Z,10.80
2022-10-19T06:26:57.379Z,10.50
2022-10-19T06:29:23.893Z,10.85
2022-10-19T06:31:52.048Z,9.95
2022-10-19T06:34:18.953Z,9.77
2022-10-19T06:36:45.476Z,9.43
2022-10-19T06:39:11.910Z,9.18
2022-10-19T06:41:38.348Z,9.02
2022-10-19T06:44:04.909Z,9.00
2022-10-19T06:46:32.674Z,9.60
2022-10-19T06:49:01.883Z,9.38
2022-10-19T06:51:29.967Z,9.02
2022-10-19T06:53:57.175Z,8.63
2022-10-19T06:56:25.155Z,8.30
2022-10-19T06:58:51.689Z,9.07
2022-10-19T07:01:18.244Z,8.18
2022-10-19T07:03:44.742Z,8.68
2022-10-19T07:06:12.685Z,8.77
2022-10-19T07:08:41.048Z,7.57
2022-10-19T07:11:10.562Z,8.53
2022-10-19T07:13:37.684Z,7.78
2022-10-19T07:16:07.160Z,8.18
2022-10-19T07:18:35.413Z,7.20
2022-10-19T07:21:04.260Z,7.63
2022-10-19T07:23:32.087Z,7.77
2022-10-19T07:26:07.669Z,7.13
2022-10-19T07:28:35.103Z,7.70
2022-10-19T07:31:09.700Z,7.47
2022-10-19T07:33:36.587Z,7.85
2022-10-19T07:36:06.532Z,7.83
2022-10-19T07:38:34.101Z,7.40
2022-10-19T07:41:02.789Z,7.38
2022-10-19T07:43:29.345Z,7.45
2022-10-19T07:46:07.117Z,7.20
2022-10-19T07:48:34.361Z,6.90
2022-10-19T07:51:02.101Z,7.10
2022-10-19T07:53:28.730Z,6.97
2022-10-19T07:55:55.511Z,6.82
2022-10-19T07:58:24.170Z,6.50
2022-10-19T08:00:50.631Z,8.50
2022-10-19T08:06:05.582Z,6.38
2022-10-19T08:08:32.668Z,6.25
2022-10-19T08:11:07.315Z,6.00
2022-10-19T08:13:35.206Z,6.40
2022-10-19T08:16:05.568Z,6.15
2022-10-19T08:21:03.763Z,6.45
2022-10-19T08:23:30.222Z,5.95
2022-10-19T08:26:01.684Z,6.90
2022-10-19T08:28:28.252Z,6.90
2022-10-19T08:30:58.941Z,6.28
2022-10-19T08:33:26.218Z,6.40
2022-10-19T08:35:54.046Z,6.50
2022-10-19T08:38:20.716Z,5.47
2022-10-19T08:40:47.332Z,5.70
2022-10-19T08:43:23.075Z,6.28
2022-10-19T08:46:19.935Z,7.07
2022-10-19T08:48:46.407Z,6.97
2022-10-19T08:51:13.747Z,5.93
2022-10-19T08:53:42.947Z,6.03
2022-10-19T08:56:38.829Z,6.57
2022-10-19T08:59:24.056Z,5.50
2022-10-19T09:02:00.060Z,6.80
2022-10-19T09:04:42.252Z,5.77
2022-10-19T09:07:32.467Z,5.63
2022-10-19T09:10:09.085Z,5.88
2022-10-19T09:12:43.386Z,5.82
2022-10-19T09:15:15.877Z,6.03
2022-10-19T09:17:42.518Z,5.43
2022-10-19T09:20:15.357Z,5.00
2022-10-19T09:22:43.650Z,5.03
2022-10-19T09:25:23.446Z,5.30
2022-10-19T09:27:57.879Z,4.55
2022-10-19T09:30:24.541Z,4.40
2022-10-19T09:32:59.343Z,5.25
2022-10-19T09:35:39.666Z,4.65
2022-10-19T09:38:07.614Z,3.88
2022-10-19T09:40:34.945Z,4.20
2022-10-19T09:43:13.246Z,3.90
2022-10-19T09:45:48.632Z,4.50
2022-10-19T09:48:35.779Z,4.70
2022-10-19T09:51:03.967Z,4.20
2022-10-19T09:53:30.514Z,4.18
2022-10-19T09:56:07.655Z,4.30
2022-10-19T09:58:34.974Z,3.88
2022-10-19T10:01:02.872Z,6.10
2022-10-19T10:03:36.461Z,4.45
2022-10-19T10:06:04.766Z,4.70
2022-10-19T10:08:34.291Z,4.23
2022-10-19T10:11:20.994Z,4.18
2022-10-19T10:13:54.114Z,4.15
2022-10-19T10:16:23.531Z,2.38
2022-10-19T10:19:03.108Z,2.50
2022-10-19T10:21:33.636Z,1.93
2022-10-19T10:24:06.097Z,2.28
2022-10-19T10:26:39.183Z,2.05
2022-10-19T10:29:29.886Z,2.15
2022-10-19T10:32:01.895Z,2.55
2022-10-19T10:34:49.299Z,2.20
2022-10-19T10:37:23.870Z,2.20
2022-10-19T10:39:55.774Z,2.65
2022-10-19T10:42:51.927Z,2.33
2022-10-19T10:45:41.344Z,2.10
2022-10-19T10:48:34.781Z,2.47
2022-10-19T10:51:11.354Z,2.65
2022-10-19T10:53:45.722Z,2.40
2022-10-19T10:56:26.665Z,2.40
2022-10-19T10:58:55.672Z,2.47
2022-10-19T11:01:23.803Z,2.10
2022-10-19T11:04:00.277Z,1.70
2022-10-19T11:06:26.946Z,1.45
2022-10-19T11:09:08.792Z,1.65
2022-10-19T11:11:45.121Z,1.58
2022-10-19T11:14:26.392Z,1.57
2022-10-19T11:16:54.850Z,1.60
2022-10-19T11:19:27.478Z,2.00
2022-10-19T11:22:09.016Z,1.55
2022-10-19T11:25:01.295Z,1.60
2022-10-19T11:27:39.914Z,1.40
2022-10-19T11:30:09.830Z,1.60
2022-10-19T11:33:03.096Z,1.95
2022-10-19T11:35:35.110Z,1.58
2022-10-19T11:38:27.404Z,1.90
2022-10-19T11:41:26.454Z,2.10
2022-10-19T11:44:20.883Z,2.00
2022-10-19T11:46:53.290Z,2.78
2022-10-19T11:49:35.578Z,1.83
2022-10-19T11:52:21.775Z,1.70
2022-10-19T11:55:03.780Z,1.77
2022-10-19T11:57:54.070Z,1.90
2022-10-19T12:00:38.285Z,2.03
2022-10-19T12:03:34.409Z,1.90
2022-10-19T12:06:24.289Z,1.85
2022-10-19T12:09:05.219Z,1.70
2022-10-19T12:11:47.464Z,1.83
2022-10-19T12:14:17.753Z,1.80
2022-10-19T12:16:56.404Z,2.00
2022-10-19T12:19:26.194Z,1.75
2022-10-19T12:21:59.727Z,1.80
2022-10-19T12:24:26.512Z,1.80
2022-10-19T12:26:54.469Z,1.83
2022-10-19T12:29:41.218Z,1.80
2022-10-19T12:32:08.282Z,1.88
2022-10-19T12:34:46.903Z,1.47
2022-10-19T12:37:32.179Z,1.58
2022-10-19T12:40:17.602Z,1.40
2022-10-19T12:43:17.296Z,1.50
2022-10-19T12:45:54.258Z,2.00
2022-10-19T12:48:22.249Z,1.97
2022-10-19T12:50:48.682Z,2.10
2022-10-19T12:53:35.801Z,1.98
2022-10-19T12:56:11.774Z,1.92
2022-10-19T12:58:46.769Z,2.30
2022-10-19T13:01:23.665Z,1.83
2022-10-19T13:04:07.111Z,1.80
2022-10-19T13:06:36.047Z,1.90
2022-10-19T13:09:08.251Z,1.70
2022-10-19T13:11:36.015Z,1.70
2022-10-19T13:14:14.521Z,1.80
2022-10-19T13:16:56.710Z,1.80
2022-10-19T13:19:23.426Z,2.00
2022-10-19T13:21:58.654Z,1.73
2022-10-19T13:24:25.031Z,1.90
2022-10-19T13:27:03.848Z,1.73
2022-10-19T13:29:41.289Z,1.58
2022-10-19T13:32:29.838Z,2.22
2022-10-19T13:35:21.726Z,1.77
2022-10-19T13:38:16.056Z,2.40
2022-10-19T13:40:48.707Z,2.50
2022-10-19T13:43:30.535Z,2.13
2022-10-19T13:46:29.410Z,2.20
2022-10-19T13:49:02.072Z,2.50
2022-10-19T13:51:57.085Z,2.85
2022-10-19T13:54:23.721Z,2.47
2022-10-19T13:57:08.460Z,2.72
2022-10-19T14:00:10.512Z,2.55
2022-10-19T14:03:06.604Z,2.78
2022-10-19T14:05:49.802Z,2.60
2022-10-19T14:08:54.838Z,3.20
2022-10-19T14:11:39.217Z,3.05
2022-10-19T14:14:11.733Z,3.30
2022-10-19T14:16:54.462Z,3.67
2022-10-19T14:19:40.737Z,3.25
2022-10-19T14:22:33.299Z,3.40
2022-10-19T14:25:02.206Z,3.28
2022-10-19T14:27:29.972Z,3.25
2022-10-19T14:29:56.525Z,2.83
2022-10-19T14:32:26.323Z,3.00
2022-10-19T14:34:54.534Z,3.40
2022-10-19T14:37:24.030Z,3.00
2022-10-19T14:40:08.308Z,2.90
2022-10-19T14:42:42.936Z,2.63
2022-10-19T14:45:18.948Z,3.22
2022-10-19T14:47:57.342Z,2.70
2022-10-19T14:50:34.818Z,3.00
2022-10-19T14:53:35.295Z,2.83
2022-10-19T14:56:10.458Z,2.90
2022-10-19T14:58:44.643Z,2.78
2022-10-19T15:01:12.104Z,2.77
2022-10-19T15:03:43.574Z,2.60
2022-10-19T15:06:17.482Z,2.90
2022-10-19T15:08:48.623Z,3.25
2022-10-19T15:11:27.218Z,3.33
2022-10-19T15:14:02.775Z,2.40
2022-10-19T15:17:05.863Z,2.80
2022-10-19T15:19:33.050Z,2.70
2022-10-19T15:22:32.057Z,3.13
2022-10-19T15:25:15.215Z,2.63
2022-10-19T15:27:45.517Z,3.00
2022-10-19T15:30:17.973Z,2.97
2022-10-19T15:32:45.937Z,2.70
2022-10-19T15:35:20.551Z,3.33
2022-10-19T15:37:48.777Z,3.20
2022-10-19T15:40:31.627Z,3.10
2022-10-19T15:42:58.144Z,3.03
2022-10-19T15:45:33.806Z,3.38
2022-10-19T15:48:29.888Z,3.55
2022-10-19T15:50:57.009Z,3.00
2022-10-19T15:53:25.481Z,3.03
2022-10-19T15:55:51.973Z,2.80
2022-10-19T15:58:18.610Z,3.08
2022-10-19T16:00:45.037Z,3.70
2022-10-19T16:03:11.470Z,3.00
2022-10-19T16:05:37.929Z,3.33
2022-10-19T16:08:07.876Z,3.55
2022-10-19T16:10:36.658Z,3.13
2022-10-19T16:13:03.102Z,2.50
2022-10-19T16:15:29.554Z,3.08
2022-10-19T16:17:58.860Z,3.50
2022-10-19T16:20:27.079Z,2.90
2022-10-19T16:22:53.883Z,3.13
2022-10-19T16:25:20.513Z,3.38
2022-10-19T16:27:47.100Z,3.63
2022-10-19T16:30:13.859Z,2.90
2022-10-19T16:35:12.078Z,3.20
2022-10-19T16:37:38.559Z,2.90
2022-10-19T16:40:05.574Z,3.55
2022-10-19T16:42:32.643Z,3.00
2022-10-19T16:44:59.280Z,3.13
2022-10-19T16:47:25.756Z,3.25
2022-10-19T16:50:02.645Z,3.22
2022-10-19T16:52:31.704Z,3.03
2022-10-19T16:55:01.592Z,3.00
2022-10-19T16:57:28.029Z,3.30
2022-10-19T16:59:54.587Z,2.72
2022-10-19T17:02:21.662Z,3.70
2022-10-19T17:04:48.104Z,3.40
2022-10-19T17:07:15.156Z,3.40
2022-10-19T17:09:42.781Z,2.90
2022-10-19T17:12:10.383Z,2.50
2022-10-19T17:14:39.139Z,3.40
2022-10-19T17:17:05.829Z,3.20
2022-10-19T17:19:32.286Z,3.17
2022-10-19T17:21:59.325Z,3.45
2022-10-19T17:24:25.858Z,3.97
2022-10-19T17:26:53.232Z,3.70
2022-10-19T17:29:20.702Z,2.95
2022-10-19T17:31:47.282Z,3.70
2022-10-19T17:34:14.216Z,3.25
2022-10-19T17:36:44.173Z,3.78
2022-10-19T17:39:19.020Z,2.95
2022-10-19T17:41:46.353Z,3.17
2022-10-19T17:44:13.056Z,3.47
2022-10-19T17:46:39.484Z,3.50
2022-10-19T17:49:06.144Z,3.13
2022-10-19T17:51:34.143Z,3.50
2022-10-19T17:54:12.534Z,3.35
2022-10-19T17:56:39.552Z,3.80
2022-10-19T17:59:07.878Z,3.78
2022-10-19T18:01:35.591Z,3.92
2022-10-19T18:04:02.217Z,3.63
2022-10-19T18:06:31.579Z,3.85
2022-10-19T18:08:59.524Z,3.80
2022-10-19T18:11:28.530Z,3.60
2022-10-19T18:13:58.295Z,3.78
2022-10-19T18:16:26.731Z,3.42
2022-10-19T18:18:55.674Z,3.30
2022-10-19T18:21:25.238Z,3.70
2022-10-19T18:23:53.363Z,3.75
2022-10-19T18:26:23.061Z,3.78
2022-10-19T18:28:50.936Z,4.43
2022-10-19T18:31:19.793Z,3.83
2022-10-19T18:33:47.397Z,4.07
2022-10-19T18:36:13.959Z,3.75
2022-10-19T18:38:40.593Z,3.97
2022-10-19T18:43:43.397Z,3.88
2022-10-19T18:46:10.548Z,3.37
2022-10-19T18:48:38.083Z,3.90
2022-10-19T18:51:06.910Z,4.05
2022-10-19T18:53:34.171Z,3.55
2022-10-19T18:56:02.264Z,3.35
2022-10-19T18:58:30.923Z,3.50
2022-10-19T19:01:11.863Z,3.92
2022-10-19T19:03:40.159Z,3.30
2022-10-19T19:06:09.002Z,3.45
2022-10-19T19:08:35.563Z,3.17
2022-10-19T19:11:21.297Z,3.57
2022-10-19T19:14:10.655Z,3.67
2022-10-19T19:16:38.301Z,3.35
2022-10-19T19:19:05.647Z,3.33
2022-10-19T19:21:32.534Z,3.08
2022-10-19T19:24:00.700Z,3.60
2022-10-19T19:26:29.970Z,3.40
2022-10-19T19:28:57.441Z,3.72
2022-10-19T19:31:24.402Z,4.13
2022-10-19T19:33:50.864Z,3.80
2022-10-19T19:36:18.054Z,4.10
2022-10-19T19:38:44.884Z,3.83
2022-10-19T19:41:13.317Z,3.38
2022-10-19T19:43:40.390Z,4.32
2022-10-19T19:46:11.006Z,3.70
2022-10-19T19:48:37.414Z,3.23
2022-10-19T19:51:04.038Z,3.17
2022-10-19T19:53:30.593Z,3.28
2022-10-19T19:55:57.030Z,3.63
